Leyba, New Mexico
Current Conditions -  °F | °C
As of 3:53 PM on Thursday 27 Nov 2014 (Local Time) from KCQC Reporting Station
Clear Clear  
Wind Chill: 57°   Ceiling: Unl
Heat Index: 57°   Visibility: 10mi
Dew Point: 22°   Wind: 12mph
Humidity: 26%   Direction: 300°WNW
Pressure: 30.35"   Gusts: NA
Location:  35.2352°N, 105.52°W
Report Text: KCQC 272253Z AUTO 30010KT 10SM CLR 14/M06 A3035 RMK AO2 SLP244 T01391056
Loading
Personal Weather Stations






























Interactive Weather Map New forecast layout! Learn more

10-Day Weather Forecast

Advertisements
Track Severe Weather on mobile